Time;durP1;ratioP1;P1;durP2;ratioP2;P2;SDS_P1;SDS_P2;PMS_P1;PMS_P2;Temp;Humidity;BMP_temperature;BMP_pressure;BME280_temperature;BME280_humidity;BME280_pressure;Samples;Min_cycle;Max_cycle;Signal;HPM_P1;HPM_P2
2022/12/31 00:00:59;;;;;;;1.77;1.67;;;;;;;11.92;100.00;100252.13;5051361;28;20033;-55
2022/12/31 00:03:24;;;;;;;1.80;1.70;;;;;;;11.91;100.00;100251.31;5052234;28;20027;-54
2022/12/31 00:05:50;;;;;;;2.60;1.42;;;;;;;11.91;100.00;100243.31;5050820;28;20043;-55
2022/12/31 00:08:15;;;;;;;2.45;1.80;;;;;;;11.93;100.00;100243.19;5052014;28;20494;-55
2022/12/31 00:10:40;;;;;;;3.92;1.80;;;;;;;11.93;100.00;100245.84;5051860;28;20028;-55
2022/12/31 00:13:10;;;;;;;3.28;1.73;;;;;;;11.93;100.00;100254.66;5050634;28;20111;-57
2022/12/31 00:15:37;;;;;;;2.08;1.85;;;;;;;11.94;100.00;100251.03;5050182;28;20036;-56
2022/12/31 00:18:02;;;;;;;1.73;1.60;;;;;;;11.94;100.00;100250.16;5040377;28;20072;-57
2022/12/31 00:20:27;;;;;;;3.03;1.88;;;;;;;11.96;100.00;100253.56;5051245;28;20490;-55
2022/12/31 00:22:53;;;;;;;2.53;1.70;;;;;;;11.95;100.00;100252.69;5051905;28;20382;-54
2022/12/31 00:25:18;;;;;;;3.75;2.00;;;;;;;11.97;100.00;100255.22;5050430;28;20021;-57
2022/12/31 00:27:43;;;;;;;3.63;2.10;;;;;;;11.97;100.00;100265.84;5052105;28;20052;-57
2022/12/31 00:30:09;;;;;;;3.53;1.88;;;;;;;11.97;100.00;100248.09;5050980;28;20025;-56
2022/12/31 00:32:34;;;;;;;2.58;2.20;;;;;;;11.97;100.00;100234.78;5051239;28;20108;-53
2022/12/31 00:35:00;;;;;;;2.83;2.17;;;;;;;11.96;100.00;100233.09;5051989;28;20071;-52
2022/12/31 00:37:25;;;;;;;2.85;2.00;;;;;;;11.95;100.00;100227.91;5051631;28;20025;-56
2022/12/31 00:39:50;;;;;;;2.50;1.98;;;;;;;11.95;100.00;100227.91;5050867;28;20021;-53
2022/12/31 00:42:15;;;;;;;2.35;1.90;;;;;;;11.96;100.00;100226.94;5051739;28;20340;-53
2022/12/31 00:44:41;;;;;;;2.80;1.90;;;;;;;11.96;100.00;100237.59;5053708;28;20028;-53
2022/12/31 00:47:06;;;;;;;1.95;1.65;;;;;;;11.95;100.00;100231.41;5051349;28;20048;-53
2022/12/31 00:49:31;;;;;;;1.48;1.38;;;;;;;11.95;100.00;100226.06;5051958;28;20029;-55
2022/12/31 00:51:56;;;;;;;1.77;1.60;;;;;;;11.95;100.00;100228.72;5051615;28;20083;-54
2022/12/31 00:54:22;;;;;;;2.55;1.70;;;;;;;11.95;100.00;100228.72;5050460;28;20459;-55
2022/12/31 00:56:47;;;;;;;1.50;1.40;;;;;;;11.95;100.00;100217.25;5051561;28;20047;-53
2022/12/31 00:59:12;;;;;;;1.35;1.25;;;;;;;11.95;100.00;100222.59;5047504;28;20386;-53
2022/12/31 01:01:39;;;;;;;2.42;1.10;;;;;;;11.95;100.00;100219.91;5051708;28;20017;-53
2022/12/31 01:04:08;;;;;;;2.92;1.42;;;;;;;11.93;100.00;100220.06;5050881;28;20040;-54
2022/12/31 01:06:33;;;;;;;1.63;1.30;;;;;;;11.92;100.00;100220.19;5051184;28;20049;-54
2022/12/31 01:08:59;;;;;;;2.15;1.50;;;;;;;11.92;100.00;100226.34;5051094;28;20071;-53
2022/12/31 01:11:28;;;;;;;1.30;1.20;;;;;;;11.93;100.00;100217.41;5050472;28;20025;-55
2022/12/31 01:13:55;;;;;;;1.30;1.20;;;;;;;11.91;100.00;100191.91;5051259;28;20029;-55
2022/12/31 01:16:24;;;;;;;1.65;1.30;;;;;;;11.90;100.00;100200.84;5049510;28;20037;-54
2022/12/31 01:18:50;;;;;;;1.15;1.05;;;;;;;11.89;100.00;100204.47;5054624;28;20033;-56
2022/12/31 01:21:16;;;;;;;1.55;1.00;;;;;;;11.87;100.00;100195.81;5052563;28;20033;-55
2022/12/31 01:23:42;;;;;;;0.80;0.80;;;;;;;11.86;100.00;100205.63;5053576;28;20418;-57
2022/12/31 01:26:11;;;;;;;3.03;0.90;;;;;;;11.82;100.00;100213.06;5055033;28;20082;-56
2022/12/31 01:28:36;;;;;;;0.80;0.80;;;;;;;11.80;100.00;100212.31;5054374;28;20540;-55
2022/12/31 01:31:03;;;;;;;1.02;0.90;;;;;;;11.79;100.00;100225.78;5055098;28;20028;-55
2022/12/31 01:33:29;;;;;;;1.20;1.08;;;;;;;11.76;100.00;100221.59;5054417;28;20368;-53
2022/12/31 01:35:54;;;;;;;3.40;0.90;;;;;;;11.75;100.00;100229.72;5053951;28;20032;-55
2022/12/31 01:38:19;;;;;;;0.60;0.60;;;;;;;11.73;100.00;100227.19;5054598;28;20025;-55
2022/12/31 01:40:45;;;;;;;0.80;0.80;;;;;;;11.72;100.00;100222.00;5053620;28;20021;-56
2022/12/31 01:43:17;;;;;;;4.70;0.80;;;;;;;11.71;100.00;100234.47;5047899;28;20491;-54
2022/12/31 01:45:49;;;;;;;2.08;0.63;;;;;;;11.70;100.00;100231.94;5054624;28;20020;-57
2022/12/31 01:48:21;;;;;;;1.00;0.60;;;;;;;11.69;100.00;100236.44;5053244;28;20036;-56
2022/12/31 01:50:47;;;;;;;2.10;0.65;;;;;;;11.69;100.00;100259.53;5054623;28;20074;-55
2022/12/31 01:53:14;;;;;;;0.85;0.60;;;;;;;11.69;100.00;100286.13;5054427;28;20028;-56
2022/12/31 01:55:49;;;;;;;0.70;0.70;;;;;;;11.68;100.00;100295.94;5053080;28;20067;-56
2022/12/31 01:58:18;;;;;;;0.93;0.70;;;;;;;11.68;100.00;100287.13;5054273;28;20475;-57
2022/12/31 02:00:45;;;;;;;0.70;0.70;;;;;;;11.66;100.00;100253.50;5051693;28;20017;-55
2022/12/31 02:03:12;;;;;;;0.80;0.80;;;;;;;11.66;100.00;100240.19;5053394;28;20029;-56
2022/12/31 02:05:56;;;;;;;1.23;0.80;;;;;;;11.69;100.00;100251.53;5054439;28;20107;-57
2022/12/31 02:08:21;;;;;;;0.80;0.80;;;;;;;11.66;100.00;100255.34;5053565;28;20135;-56
2022/12/31 02:10:47;;;;;;;2.78;0.68;;;;;;;11.66;100.00;100250.84;5052517;28;20554;-55
2022/12/31 02:13:13;;;;;;;0.95;0.82;;;;;;;11.66;100.00;100250.00;5054168;28;20029;-56
2022/12/31 02:16:02;;;;;;;0.82;0.82;;;;;;;11.66;100.00;100264.16;5052061;28;20039;-56
2022/12/31 02:18:38;;;;;;;0.90;0.90;;;;;;;11.67;100.00;100262.31;5038110;28;20033;-55
2022/12/31 02:21:34;;;;;;;1.05;1.05;;;;;;;11.68;100.00;100279.97;5037258;28;20025;-56
2022/12/31 02:24:24;;;;;;;2.03;1.20;;;;;;;11.68;100.00;100289.78;5046248;28;20056;-56
2022/12/31 02:27:05;;;;;;;1.33;1.33;;;;;;;11.66;100.00;100289.91;5050130;28;20364;-56
2022/12/31 02:30:04;;;;;;;1.10;1.10;;;;;;;11.67;100.00;100296.91;5042532;28;20087;-55
2022/12/31 02:32:53;;;;;;;1.20;1.10;;;;;;;11.69;100.00;100296.75;5052368;28;20548;-56
2022/12/31 02:35:26;;;;;;;1.80;1.70;;;;;;;11.68;100.00;100292.44;5053496;28;20397;-56
2022/12/31 02:37:56;;;;;;;2.20;1.60;;;;;;;11.65;100.00;100290.88;5034846;28;20041;-55
2022/12/31 02:40:22;;;;;;;3.20;1.70;;;;;;;11.66;100.00;100312.03;5048104;28;20044;-58
2022/12/31 02:42:47;;;;;;;2.10;2.00;;;;;;;11.66;100.00;100320.00;5052698;28;20119;-54
2022/12/31 02:45:18;;;;;;;2.35;2.15;;;;;;;11.66;100.00;100312.03;5053034;28;20108;-55
2022/12/31 02:47:43;;;;;;;2.25;2.15;;;;;;;11.65;100.00;100322.81;5053695;28;20060;-55
2022/12/31 02:50:29;;;;;;;2.37;2.27;;;;;;;11.64;100.00;100295.38;5052347;28;20103;-56
2022/12/31 02:53:19;;;;;;;2.80;2.60;;;;;;;11.64;100.00;100292.72;5049205;28;20276;-57
2022/12/31 02:56:10;;;;;;;2.38;2.28;;;;;;;11.62;100.00;100292.00;5047134;28;20020;-54
2022/12/31 03:04:35;;;;;;;2.30;2.10;;;;;;;11.60;100.00;100287.81;5052602;28;20040;-55
2022/12/31 03:07:22;;;;;;;2.45;2.20;;;;;;;11.60;100.00;100285.13;5053282;28;20025;-55
2022/12/31 03:09:48;;;;;;;1.90;1.80;;;;;;;11.56;100.00;100281.09;5052778;28;20025;-56
2022/12/31 03:14:59;;;;;;;2.53;1.77;;;;;;;11.53;100.00;100273.38;5052104;28;20144;-57
2022/12/31 03:17:25;;;;;;;2.10;2.00;;;;;;;11.52;100.00;100269.03;5051377;28;20076;-56
2022/12/31 03:22:37;;;;;;;2.72;1.63;;;;;;;11.52;100.00;100261.88;5052002;28;20521;-56
2022/12/31 03:27:56;;;;;;;2.40;1.48;;;;;;;11.51;100.00;100254.91;5041446;28;20052;-56
2022/12/31 03:30:22;;;;;;;1.70;1.60;;;;;;;11.50;100.00;100255.88;5049842;28;20408;-57
2022/12/31 03:32:49;;;;;;;1.60;1.40;;;;;;;11.51;100.00;100257.56;5052805;28;20048;-57
2022/12/31 03:35:16;;;;;;;1.58;1.48;;;;;;;11.49;100.00;100251.53;5052380;28;20025;-56
2022/12/31 03:37:42;;;;;;;1.10;1.10;;;;;;;11.50;100.00;100249.72;5051368;28;20387;-57
2022/12/31 03:40:10;;;;;;;2.65;1.40;;;;;;;11.48;100.00;100239.22;5051468;28;20025;-57
2022/12/31 03:42:35;;;;;;;2.00;1.50;;;;;;;11.45;100.00;100229.69;5051977;28;20064;-57
2022/12/31 03:45:01;;;;;;;1.52;1.42;;;;;;;11.45;100.00;100235.00;5051069;28;20102;-56
2022/12/31 03:47:27;;;;;;;1.58;1.48;;;;;;;11.45;100.00;100231.50;5051595;28;20024;-57
2022/12/31 03:49:52;;;;;;;2.75;1.80;;;;;;;11.45;100.00;100234.16;5051338;28;20031;-55
2022/12/31 03:52:17;;;;;;;1.55;1.40;;;;;;;11.44;100.00;100224.50;5052205;28;20048;-56
2022/12/31 03:54:43;;;;;;;1.45;1.30;;;;;;;11.43;100.00;100231.66;5050942;28;20025;-56
2022/12/31 03:57:08;;;;;;;1.15;1.15;;;;;;;11.44;100.00;100229.81;5052493;28;20025;-56
2022/12/31 03:59:33;;;;;;;1.23;1.23;;;;;;;11.42;100.00;100221.13;5051263;28;20036;-57
2022/12/31 04:01:59;;;;;;;2.50;1.38;;;;;;;11.43;100.00;100223.66;5052310;28;20061;-56
2022/12/31 04:04:24;;;;;;;2.03;1.30;;;;;;;11.44;100.00;100219.19;5050869;28;20032;-57
2022/12/31 04:06:49;;;;;;;1.20;1.20;;;;;;;11.44;100.00;100227.16;5051979;28;20057;-55
2022/12/31 04:09:15;;;;;;;1.52;0.93;;;;;;;11.43;100.00;100212.19;5051938;28;20048;-54
2022/12/31 04:11:40;;;;;;;0.80;0.80;;;;;;;11.46;100.00;100220.72;5051483;28;20103;-53
2022/12/31 04:14:05;;;;;;;1.50;1.20;;;;;;;11.49;100.00;100230.28;5051846;28;20033;-57
2022/12/31 04:16:31;;;;;;;1.00;0.80;;;;;;;11.53;100.00;100213.03;5051209;28;20388;-57
2022/12/31 04:18:56;;;;;;;1.15;0.90;;;;;;;11.56;100.00;100220.75;5051722;28;20441;-54
2022/12/31 04:21:22;;;;;;;0.98;0.98;;;;;;;11.60;100.00;100214.16;5051467;28;20059;-56
2022/12/31 04:23:47;;;;;;;1.25;0.90;;;;;;;11.64;100.00;100201.41;5051811;28;20493;-57
2022/12/31 04:26:12;;;;;;;4.70;1.40;;;;;;;11.74;100.00;100207.59;5051260;28;20037;-56
2022/12/31 04:28:38;;;;;;;2.65;0.95;;;;;;;11.77;100.00;100195.81;5061871;28;20035;-55
2022/12/31 04:31:03;;;;;;;2.42;1.10;;;;;;;11.86;100.00;100202.97;5051998;28;20108;-55
2022/12/31 04:33:29;;;;;;;2.38;1.13;;;;;;;11.92;100.00;100197.06;5051349;28;20017;-56
2022/12/31 04:36:03;;;;;;;4.88;1.13;;;;;;;12.01;100.00;100184.75;5051167;28;20029;-57
2022/12/31 04:38:30;;;;;;;2.78;1.40;;;;;;;12.08;100.00;100174.38;5050312;28;20403;-57
2022/12/31 04:43:40;;;;;;;4.82;1.15;;;;;;;12.31;100.00;100206.84;5049806;28;20091;-56
2022/12/31 04:46:06;;;;;;;5.43;1.50;;;;;;;12.34;100.00;100212.69;5051765;28;20534;-56
2022/12/31 04:48:32;;;;;;;4.57;1.35;;;;;;;12.44;100.00;100215.34;5051317;28;20025;-55
2022/12/31 04:50:57;;;;;;;5.45;1.45;;;;;;;12.52;100.00;100211.94;5051595;28;20040;-55
2022/12/31 04:53:23;;;;;;;6.22;1.20;;;;;;;12.59;100.00;100221.03;5055133;28;20025;-56
2022/12/31 04:55:49;;;;;;;5.53;1.05;;;;;;;12.62;100.00;100218.06;5055045;28;20106;-55
2022/12/31 04:58:14;;;;;;;4.38;1.10;;;;;;;12.68;100.00;100228.13;5054618;28;20107;-56
2022/12/31 05:00:39;;;;;;;2.95;1.10;;;;;;;12.75;100.00;100231.06;5055302;28;20032;-53
2022/12/31 05:03:04;;;;;;;4.82;1.27;;;;;;;12.82;100.00;100231.31;5054820;28;20021;-56
2022/12/31 05:05:30;;;;;;;2.13;0.90;;;;;;;12.90;100.00;100231.41;5055259;28;20052;-56
2022/12/31 05:07:55;;;;;;;3.38;1.15;;;;;;;12.96;100.00;100237.00;5054386;28;20474;-57
2022/12/31 05:10:20;;;;;;;4.57;1.13;;;;;;;13.01;100.00;100236.56;5055374;28;20090;-56
2022/12/31 05:12:46;;;;;;;2.05;0.90;;;;;;;13.02;100.00;100235.53;5054630;28;20490;-55
2022/12/31 05:15:11;;;;;;;4.93;0.98;;;;;;;13.03;100.00;100239.91;5055431;28;20115;-56
2022/12/31 05:17:36;;;;;;;1.88;0.77;;;;;;;13.04;100.00;100260.25;5054800;28;20418;-57
2022/12/31 05:20:02;;;;;;;2.10;0.95;;;;;;;13.09;100.00;100251.78;5054719;28;20036;-58
2022/12/31 05:22:30;;;;;;;3.67;1.00;;;;;;;13.11;100.00;100247.16;5053854;28;20450;-56
2022/12/31 05:24:57;;;;;;;2.03;0.77;;;;;;;13.18;100.00;100250.91;5054817;28;20064;-58
2022/12/31 05:27:23;;;;;;;2.10;0.88;;;;;;;13.22;100.00;100252.31;5045909;28;20064;-56
2022/12/31 05:29:48;;;;;;;2.05;0.70;;;;;;;13.27;100.00;100257.16;5048751;28;20031;-59
2022/12/31 05:32:14;;;;;;;4.18;0.80;;;;;;;13.28;100.00;100272.19;5053736;28;20029;-56
2022/12/31 05:34:39;;;;;;;2.92;0.95;;;;;;;13.28;100.00;100273.03;5054759;28;20021;-57
2022/12/31 05:37:04;;;;;;;3.90;0.75;;;;;;;13.28;100.00;100270.34;5054497;28;20475;-57
2022/12/31 05:39:30;;;;;;;2.25;0.70;;;;;;;13.28;100.00;100270.34;5054252;28;20029;-57
2022/12/31 05:41:55;;;;;;;3.30;0.80;;;;;;;13.25;100.00;100272.50;5054184;28;20104;-56
2022/12/31 05:44:20;;;;;;;3.10;1.00;;;;;;;13.26;100.00;100259.00;5054361;28;20041;-55
2022/12/31 05:46:46;;;;;;;1.90;0.70;;;;;;;13.33;100.00;100269.94;5053597;28;20094;-56
2022/12/31 05:49:11;;;;;;;2.60;1.13;;;;;;;13.32;100.00;100274.44;5054587;28;20036;-57
2022/12/31 05:51:36;;;;;;;1.15;0.60;;;;;;;13.38;100.00;100280.19;5052324;28;20052;-57
2022/12/31 05:54:02;;;;;;;2.00;0.68;;;;;;;13.41;100.00;100258.53;5054675;28;20359;-54
2022/12/31 05:56:27;;;;;;;1.75;0.60;;;;;;;13.43;100.00;100265.38;5052332;28;20028;-56
2022/12/31 05:58:53;;;;;;;1.98;0.60;;;;;;;13.47;100.00;100249.91;5054186;28;20017;-57
2022/12/31 06:01:18;;;;;;;3.63;0.65;;;;;;;13.50;100.00;100242.44;5054342;28;20119;-57
2022/12/31 06:03:43;;;;;;;1.90;0.80;;;;;;;13.56;100.00;100275.69;5049389;28;20037;-56
2022/12/31 06:06:08;;;;;;;0.85;0.85;;;;;;;13.60;100.00;100282.41;5051617;28;20502;-57
2022/12/31 06:08:34;;;;;;;2.97;0.70;;;;;;;13.66;100.00;100281.81;5054498;28;20063;-57
2022/12/31 06:10:59;;;;;;;1.58;0.70;;;;;;;13.67;100.00;100271.97;5054045;28;20025;-57
2022/12/31 06:13:24;;;;;;;0.95;0.63;;;;;;;13.79;100.00;100277.91;5053732;28;20379;-57
2022/12/31 06:15:49;;;;;;;4.85;0.80;;;;;;;13.85;100.00;100293.31;5054167;28;20029;-58
2022/12/31 06:18:15;;;;;;;1.92;0.77;;;;;;;13.90;100.00;100307.06;5054050;28;20508;-58
2022/12/31 06:20:40;;;;;;;3.28;0.75;;;;;;;13.93;100.00;100305.91;5053110;28;20035;-58
2022/12/31 06:23:05;;;;;;;1.52;0.98;;;;;;;13.94;100.00;100289.75;5053980;28;20021;-58
2022/12/31 06:25:33;;;;;;;1.10;0.70;;;;;;;14.00;100.00;100302.47;5053005;28;20031;-57
2022/12/31 06:27:58;;;;;;;3.13;0.85;;;;;;;14.04;100.00;100303.03;5042344;28;20068;-54
2022/12/31 06:30:23;;;;;;;2.28;0.70;;;;;;;14.06;100.00;100304.53;5048421;28;20056;-56
2022/12/31 06:32:48;;;;;;;4.03;0.95;;;;;;;14.09;100.00;100321.22;5045996;28;20029;-57
2022/12/31 06:35:14;;;;;;;2.05;0.60;;;;;;;14.13;100.00;100309.28;5052715;28;20033;-56
2022/12/31 06:37:39;;;;;;;2.20;1.00;;;;;;;14.21;100.00;100314.69;5053544;28;20025;-57
2022/12/31 06:40:05;;;;;;;2.33;0.80;;;;;;;14.27;100.00;100302.53;5052909;28;20042;-57
2022/12/31 06:42:31;;;;;;;3.38;0.88;;;;;;;14.30;100.00;100310.22;5052285;28;20111;-56
2022/12/31 06:44:57;;;;;;;3.58;0.70;;;;;;;14.35;100.00;100313.28;5053021;28;20056;-57
2022/12/31 06:47:23;;;;;;;2.78;0.75;;;;;;;14.35;100.00;100314.09;5053855;28;20021;-58
2022/12/31 06:49:48;;;;;;;4.03;0.70;;;;;;;14.32;100.00;100313.59;5052792;28;20028;-58
2022/12/31 06:52:13;;;;;;;0.73;0.55;;;;;;;14.31;100.00;100315.44;5051540;28;20482;-57
2022/12/31 06:54:39;;;;;;;2.33;0.82;;;;;;;14.37;100.00;100308.59;5053613;28;20024;-57
2022/12/31 06:57:05;;;;;;;3.42;1.00;;;;;;;14.40;100.00;100313.66;5040722;28;20884;-57
2022/12/31 06:59:30;;;;;;;1.27;0.70;;;;;;;14.43;100.00;100322.19;5046149;28;20032;-53
2022/12/31 07:02:06;;;;;;;6.15;0.88;;;;;;;14.40;100.00;100309.13;5053103;28;20025;-57
2022/12/31 07:05:09;;;;;;;5.80;1.45;;;;;;;14.47;100.00;100313.88;5055169;28;20021;-56
2022/12/31 07:07:40;;;;;;;4.22;0.93;;;;;;;14.48;100.00;100312.88;5047402;28;20810;-53
2022/12/31 07:10:20;;;;;;;4.88;0.80;;;;;;;14.49;100.00;100309.19;5032591;28;20030;-53
2022/12/31 07:12:52;;;;;;;2.42;0.82;;;;;;;14.52;100.00;100315.09;5037830;28;20032;-52
2022/12/31 07:15:42;;;;;;;4.28;1.00;;;;;;;14.56;100.00;100313.78;5037678;28;20037;-53
2022/12/31 07:18:30;;;;;;;3.05;1.00;;;;;;;14.59;100.00;100326.03;5046253;28;20050;-53
2022/12/31 07:20:56;;;;;;;3.77;0.90;;;;;;;14.54;100.00;100322.94;5044791;28;20079;-54
2022/12/31 07:23:21;;;;;;;3.20;1.10;;;;;;;14.53;100.00;100346.16;5043860;28;20809;-56
2022/12/31 07:26:35;;;;;;;5.57;1.20;;;;;;;14.63;100.00;100318.53;5045402;28;20040;-55
2022/12/31 07:29:27;;;;;;;4.00;1.10;;;;;;;14.59;100.00;100337.53;5044525;28;20508;-53
2022/12/31 07:32:10;;;;;;;4.68;0.93;;;;;;;14.57;100.00;100339.50;5046651;28;20148;-53
2022/12/31 07:34:58;;;;;;;3.85;1.10;;;;;;;14.57;100.00;100330.63;5043860;28;20045;-53
2022/12/31 07:37:28;;;;;;;4.13;1.20;;;;;;;14.57;100.00;100327.97;5043215;28;20128;-53
2022/12/31 07:40:07;;;;;;;4.75;1.23;;;;;;;14.55;100.00;100330.78;5047500;28;20033;-55
2022/12/31 07:42:43;;;;;;;4.35;1.15;;;;;;;14.52;100.00;100331.13;5039435;28;20499;-53
2022/12/31 07:45:19;;;;;;;5.70;1.30;;;;;;;14.49;100.00;100334.09;5038070;28;20052;-55
2022/12/31 07:47:45;;;;;;;4.53;1.27;;;;;;;14.47;100.00;100332.56;5039830;28;20041;-55
2022/12/31 07:50:15;;;;;;;6.07;1.40;;;;;;;14.41;100.00;100337.53;5043530;28;20033;-55
2022/12/31 07:52:40;;;;;;;4.85;1.23;;;;;;;14.36;100.00;100333.66;5049487;28;20036;-55
2022/12/31 07:55:06;;;;;;;4.32;1.10;;;;;;;14.31;100.00;100323.44;5047914;28;20399;-56
2022/12/31 07:57:39;;;;;;;4.90;1.10;;;;;;;14.24;100.00;100333.91;5048678;28;20123;-55
2022/12/31 08:00:06;;;;;;;6.25;1.60;;;;;;;14.20;100.00;100335.19;5046095;28;20029;-55
2022/12/31 08:03:02;;;;;;;5.55;1.10;;;;;;;14.19;100.00;100349.56;5044785;28;20571;-57
2022/12/31 08:05:32;;;;;;;3.75;1.10;;;;;;;14.20;100.00;100343.19;5044234;28;20398;-57
2022/12/31 08:08:36;;;;;;;3.65;1.40;;;;;;;14.18;100.00;100358.53;5047844;28;20047;-55
2022/12/31 08:11:13;;;;;;;7.22;1.48;;;;;;;14.15;100.00;100390.91;5042754;28;20060;-57
2022/12/31 08:13:41;;;;;;;3.30;1.20;;;;;;;14.13;100.00;100387.53;5037303;28;20044;-56
2022/12/31 08:16:10;;;;;;;7.43;1.10;;;;;;;14.10;100.00;100385.16;5046879;28;20037;-55
2022/12/31 08:18:35;;;;;;;2.83;1.27;;;;;;;14.02;100.00;100391.28;5046263;28;20379;-55
2022/12/31 08:21:16;;;;;;;2.95;1.00;;;;;;;13.98;100.00;100408.59;5044326;28;20036;-55
2022/12/31 08:24:21;;;;;;;2.15;0.93;;;;;;;13.98;100.00;100400.56;5047277;28;20044;-53
2022/12/31 08:27:15;;;;;;;5.60;1.23;;;;;;;13.98;100.00;100418.44;5044296;28;20041;-57
2022/12/31 08:29:54;;;;;;;3.38;1.00;;;;;;;13.99;100.00;100442.31;5044894;28;20028;-56
2022/12/31 08:32:24;;;;;;;1.65;0.80;;;;;;;14.00;100.00;100443.97;5045258;28;20045;-56
2022/12/31 08:34:55;;;;;;;3.78;1.13;;;;;;;14.06;100.00;100434.56;5046572;28;20029;-56
2022/12/31 08:37:38;;;;;;;3.40;1.02;;;;;;;14.05;100.00;100444.41;5046289;28;20041;-54
2022/12/31 08:40:15;;;;;;;3.28;1.20;;;;;;;14.11;100.00;100450.97;5046379;28;20029;-55
2022/12/31 08:43:10;;;;;;;2.05;1.20;;;;;;;14.13;100.00;100453.47;5047691;28;20114;-54
2022/12/31 08:45:49;;;;;;;4.18;1.00;;;;;;;14.11;100.00;100469.66;5047046;28;20025;-55
2022/12/31 08:48:23;;;;;;;2.55;0.90;;;;;;;14.05;100.00;100473.78;5040330;28;20634;-54
2022/12/31 08:50:48;;;;;;;4.22;0.90;;;;;;;14.06;100.00;100479.94;5041524;28;20025;-55
2022/12/31 08:53:14;;;;;;;3.40;1.00;;;;;;;14.05;100.00;100480.94;5046125;28;20483;-55
2022/12/31 08:55:42;;;;;;;2.03;0.88;;;;;;;14.01;100.00;100487.56;5043279;28;20025;-53
2022/12/31 08:58:33;;;;;;;3.13;0.90;;;;;;;14.04;100.00;100485.44;5042271;28;20040;-55
2022/12/31 09:01:00;;;;;;;2.63;1.02;;;;;;;14.07;100.00;100497.63;5047071;28;20386;-56
2022/12/31 09:03:34;;;;;;;3.78;1.35;;;;;;;14.07;100.00;100506.50;5046228;28;20025;-55
2022/12/31 09:06:06;;;;;;;4.10;1.20;;;;;;;14.07;100.00;100505.66;5047225;28;20422;-55
2022/12/31 09:09:02;;;;;;;3.35;1.10;;;;;;;14.09;100.00;100524.19;5048523;28;20044;-57
2022/12/31 09:11:32;;;;;;;3.67;1.23;;;;;;;14.06;100.00;100534.19;5044298;28;20025;-56
2022/12/31 09:14:39;;;;;;;3.05;1.00;;;;;;;14.04;100.00;100528.16;5041394;28;20037;-57
2022/12/31 09:17:42;;;;;;;3.45;1.00;;;;;;;14.00;100.00;100536.59;5047815;28;20049;-57
2022/12/31 09:20:15;;;;;;;4.40;1.20;;;;;;;13.92;100.00;100564.03;5041769;28;20075;-54
2022/12/31 09:22:41;;;;;;;4.28;1.35;;;;;;;13.86;100.00;100549.44;5042646;28;20517;-57
2022/12/31 09:25:12;;;;;;;6.80;1.20;;;;;;;13.81;100.00;100557.06;5043344;28;20049;-57
2022/12/31 09:27:50;;;;;;;5.15;1.25;;;;;;;13.76;100.00;100564.66;5037600;28;20017;-56
2022/12/31 09:30:16;;;;;;;4.05;1.13;;;;;;;13.72;100.00;100568.59;5038345;28;20052;-57
2022/12/31 09:32:54;;;;;;;5.18;1.50;;;;;;;13.68;100.00;100554.69;5039791;28;20040;-56
2022/12/31 09:35:46;;;;;;;4.75;1.10;;;;;;;13.66;100.00;100564.69;5046988;28;20021;-57
2022/12/31 09:38:17;;;;;;;5.68;1.55;;;;;;;13.65;100.00;100567.50;5048356;28;20024;-58
2022/12/31 09:41:01;;;;;;;3.75;1.15;;;;;;;13.63;100.00;100556.97;5049513;28;20037;-56
2022/12/31 09:44:03;;;;;;;4.57;1.40;;;;;;;13.67;100.00;100563.72;5051374;28;20036;-55
2022/12/31 09:46:47;;;;;;;3.38;1.30;;;;;;;13.69;100.00;100574.25;5050689;28;20033;-57
2022/12/31 09:49:34;;;;;;;4.45;1.30;;;;;;;13.71;100.00;100572.25;5051610;28;20080;-55
2022/12/31 09:52:13;;;;;;;4.35;1.50;;;;;;;13.77;100.00;100573.50;5050889;28;20037;-54
2022/12/31 09:54:51;;;;;;;4.45;1.20;;;;;;;13.81;100.00;100564.22;5050314;28;20371;-56
2022/12/31 09:58:01;;;;;;;3.40;1.23;;;;;;;13.84;100.00;100563.94;5038827;28;20124;-56
2022/12/31 10:00:52;;;;;;;4.28;1.20;;;;;;;13.91;100.00;100575.72;5048339;28;20060;-56
2022/12/31 10:03:51;;;;;;;5.35;1.40;;;;;;;13.94;100.00;100570.09;5031195;28;20037;-57
2022/12/31 10:06:23;;;;;;;4.57;1.30;;;;;;;14.01;100.00;100567.66;5042928;28;20032;-56
2022/12/31 10:09:26;;;;;;;4.95;1.33;;;;;;;14.03;100.00;100584.38;5041334;28;20048;-56
2022/12/31 10:12:22;;;;;;;3.92;1.80;;;;;;;14.03;100.00;100582.53;5041059;28;20052;-57
2022/12/31 10:15:12;;;;;;;5.38;1.38;;;;;;;14.07;100.00;100601.78;5051956;28;20482;-56
2022/12/31 10:17:46;;;;;;;6.07;1.67;;;;;;;14.12;100.00;100585.31;5053852;28;20051;-56
2022/12/31 10:20:18;;;;;;;4.55;1.60;;;;;;;14.12;100.00;100583.50;5050281;28;20036;-57
2022/12/31 10:23:01;;;;;;;6.05;1.38;;;;;;;14.16;100.00;100592.06;5053378;28;20090;-56
2022/12/31 10:25:48;;;;;;;5.32;1.67;;;;;;;14.15;100.00;100583.19;5053942;28;20111;-57
2022/12/31 10:28:23;;;;;;;5.95;1.55;;;;;;;14.15;100.00;100572.50;5037147;28;20044;-56
2022/12/31 10:31:57;;;;;;;4.30;1.42;;;;;;;14.17;100.00;100567.03;5053139;28;20029;-55
2022/12/31 10:34:37;;;;;;;7.28;1.80;;;;;;;14.18;100.00;100555.38;5050181;28;20087;-55
2022/12/31 10:37:13;;;;;;;5.75;1.60;;;;;;;14.20;100.00;100551.53;5053524;28;20029;-56
2022/12/31 10:39:54;;;;;;;4.57;1.40;;;;;;;14.24;100.00;100552.94;5047820;28;20067;-55
2022/12/31 10:42:38;;;;;;;6.53;1.48;;;;;;;14.26;100.00;100563.47;5052062;28;20029;-55
2022/12/31 10:45:17;;;;;;;7.30;1.60;;;;;;;14.30;100.00;100562.19;5049375;28;20479;-54
2022/12/31 10:47:48;;;;;;;5.45;1.65;;;;;;;14.31;100.00;100555.03;5053435;28;20119;-53
2022/12/31 10:50:20;;;;;;;3.55;1.40;;;;;;;14.35;100.00;100575.09;5051148;28;20041;-53
2022/12/31 10:53:04;;;;;;;3.17;1.70;;;;;;;14.39;100.00;100579.16;5053143;28;20072;-56
2022/12/31 10:56:00;;;;;;;5.93;1.27;;;;;;;14.39;100.00;100582.69;5053584;28;20032;-57
2022/12/31 10:58:56;;;;;;;5.47;1.63;;;;;;;14.43;100.00;100583.22;5042355;28;20506;-53
2022/12/31 11:01:47;;;;;;;5.15;1.67;;;;;;;14.49;100.00;100587.09;5053305;28;20029;-53
2022/12/31 11:04:54;;;;;;;8.35;2.10;;;;;;;14.52;100.00;100582.34;5049919;28;20390;-56
2022/12/31 11:07:38;;;;;;;4.43;1.42;;;;;;;14.55;100.00;100581.16;5047394;28;20411;-54
2022/12/31 11:10:26;;;;;;;5.20;1.55;;;;;;;14.59;100.00;100594.13;5050431;28;20033;-55
2022/12/31 11:13:02;;;;;;;5.80;1.63;;;;;;;14.61;100.00;100592.13;5051221;28;20033;-55
2022/12/31 11:15:46;;;;;;;5.25;1.55;;;;;;;14.64;100.00;100596.34;5048947;28;20017;-53
2022/12/31 11:18:29;;;;;;;9.23;2.33;;;;;;;14.65;100.00;100589.16;5052492;28;20049;-55
2022/12/31 11:21:13;;;;;;;6.10;1.80;;;;;;;14.66;100.00;100596.22;5050788;28;20128;-54
2022/12/31 11:23:49;;;;;;;7.47;2.05;;;;;;;14.70;100.00;100590.38;5052406;28;20025;-57
2022/12/31 11:26:28;;;;;;;9.35;1.73;;;;;;;14.72;100.00;100587.56;5043861;28;20040;-52
2022/12/31 11:29:16;;;;;;;4.75;1.75;;;;;;;14.77;100.00;100596.84;5036809;28;20032;-54
2022/12/31 11:31:57;;;;;;;5.72;1.65;;;;;;;14.82;100.00;100615.06;5051402;28;20021;-56
2022/12/31 11:34:42;;;;;;;5.78;1.77;;;;;;;14.86;99.80;100602.28;5045716;28;20028;-53
2022/12/31 11:37:22;;;;;;;5.38;1.90;;;;;;;14.82;99.33;100600.88;5046952;28;20502;-54
2022/12/31 11:39:57;;;;;;;4.55;1.60;;;;;;;14.80;99.52;100606.38;5050905;28;20120;-57
2022/12/31 11:42:40;;;;;;;8.05;2.05;;;;;;;14.78;100.00;100616.38;5051175;28;20471;-54
2022/12/31 11:45:33;;;;;;;7.10;1.90;;;;;;;14.76;100.00;100613.03;5025990;28;20379;-55
2022/12/31 11:48:19;;;;;;;5.20;1.55;;;;;;;14.74;100.00;100604.31;5048968;28;20476;-55
2022/12/31 11:51:15;;;;;;;7.20;2.03;;;;;;;14.71;100.00;100604.63;5047891;28;20103;-54
2022/12/31 11:54:00;;;;;;;8.50;2.05;;;;;;;14.65;100.00;100594.50;5046953;28;20064;-55
2022/12/31 11:56:33;;;;;;;8.88;1.95;;;;;;;14.61;100.00;100604.66;5040191;28;20582;-53
2022/12/31 11:59:00;;;;;;;5.75;1.80;;;;;;;14.56;100.00;100607.75;5044112;28;20049;-55
2022/12/31 12:01:34;;;;;;;7.90;2.03;;;;;;;14.56;100.00;100597.06;5049454;28;20072;-56